Hovedside
METAR-TAF:

METAR-TAF

Lufthavner :

Traian Vuia internasjonale lufthavn

Timișoara, Romania

breddegrad: 45-46N, lengdegrad: 021-15E, høyde over havet: 86 m

Gjeldene værobservasjon

Denne rapporten ble laget for 32 minutter siden, klokken 05:00 UTC
Vind 6 kt fra Øst
Temperatur 21°C
Luftfuktighet 100%
Trykk 1010 hPa
Sikt: 9000 m

METAR: LRTR 220500Z 08006KT 9000 NSC 21/21 Q1010 NOSIG

Tid: 08:32 (05:32 UTC)

Varsel

Denne rapporten ble laget for 6 timer og 32 minutter siden, klokken 23:00 UTC
Varsel gyldig fra 22. klokken 00 UTC til 23. klokken 00 UTC
Vind 4 kt fra skiftende retning
Sikt 10 km eller mer
Spredte skyer i en høyde av 4500 ft
Midlertidig
fra 22. klokken 00 UTC til 22. klokken 04 UTC
Sikt: 5000 m
dis
Midlertidig
fra 22. klokken 12 UTC til 22. klokken 18 UTC
Vind 15 kt fra skiftende retning
Sikt: 5000 m
Spredte skyer i en høyde av 4000 ft, Bygeskyer.
lette regnbyger,

TAF: LRTR 212300Z 2200/2300 VRB04KT 9999 SCT045 TEMPO 2200/2204 5000 BR TEMPO 2212/2218 VRB15KT 5000 -SHRA SCT040CB

Værobservasjoner og værvarsel for over 4000 flyplasser (METAR- og TAF-rapporter).

Tilgjengelige stasjoner er representert av de røde og gule prikkene på kartet.

Hold musepekeren over prikken for å se navnet på stasjonen.

Klikk så for å se værobservasjoner og -varsler.

For å forandre kartet kan du klikke på den grønne knappen med svart kryss for å zoome inn, på den grønne knappen med strek for å zoome ut, eller på de grønne pilene for å se tilstøtende kart.


METAR-TAF: